sensor_id;sensor_type;location;lat;lon;timestamp;P1;durP1;ratioP1;P2;durP2;ratioP2
44772;SDS011;30492;52.088;5.122;2022-08-21T00:00:03;9.38;;;3.83;;
44772;SDS011;30492;52.088;5.122;2022-08-21T00:03:44;6.53;;;3.20;;
44772;SDS011;30492;52.088;5.122;2022-08-21T00:10:26;14.73;;;4.30;;
44772;SDS011;30492;52.088;5.122;2022-08-21T00:14:15;7.63;;;3.88;;
44772;SDS011;30492;52.088;5.122;2022-08-21T00:17:55;6.80;;;3.45;;
44772;SDS011;30492;52.088;5.122;2022-08-21T00:21:35;8.13;;;3.55;;
44772;SDS011;30492;52.088;5.122;2022-08-21T00:25:15;9.50;;;4.18;;
44772;SDS011;30492;52.088;5.122;2022-08-21T00:28:55;10.02;;;3.65;;
44772;SDS011;30492;52.088;5.122;2022-08-21T00:32:36;8.05;;;4.00;;
44772;SDS011;30492;52.088;5.122;2022-08-21T00:36:17;8.05;;;3.50;;
44772;SDS011;30492;52.088;5.122;2022-08-21T00:39:56;9.50;;;4.30;;
44772;SDS011;30492;52.088;5.122;2022-08-21T00:43:16;7.25;;;3.60;;
44772;SDS011;30492;52.088;5.122;2022-08-21T00:47:00;7.20;;;3.65;;
44772;SDS011;30492;52.088;5.122;2022-08-21T00:50:42;11.68;;;4.95;;
44772;SDS011;30492;52.088;5.122;2022-08-21T00:54:25;10.55;;;4.28;;
44772;SDS011;30492;52.088;5.122;2022-08-21T00:58:06;8.55;;;3.80;;
44772;SDS011;30492;52.088;5.122;2022-08-21T01:01:48;8.30;;;3.95;;
44772;SDS011;30492;52.088;5.122;2022-08-21T01:05:29;6.47;;;3.67;;
44772;SDS011;30492;52.088;5.122;2022-08-21T01:09:08;13.73;;;3.88;;
44772;SDS011;30492;52.088;5.122;2022-08-21T01:12:47;9.73;;;3.80;;
44772;SDS011;30492;52.088;5.122;2022-08-21T01:16:26;7.75;;;3.65;;
44772;SDS011;30492;52.088;5.122;2022-08-21T01:20:06;7.93;;;3.45;;
44772;SDS011;30492;52.088;5.122;2022-08-21T01:23:49;7.95;;;3.90;;
44772;SDS011;30492;52.088;5.122;2022-08-21T01:27:30;8.00;;;3.97;;
44772;SDS011;30492;52.088;5.122;2022-08-21T01:31:08;9.13;;;3.95;;
44772;SDS011;30492;52.088;5.122;2022-08-21T01:34:51;12.77;;;4.78;;
44772;SDS011;30492;52.088;5.122;2022-08-21T01:38:10;7.00;;;3.63;;
44772;SDS011;30492;52.088;5.122;2022-08-21T01:41:50;6.75;;;3.50;;
44772;SDS011;30492;52.088;5.122;2022-08-21T01:45:28;9.93;;;4.10;;
44772;SDS011;30492;52.088;5.122;2022-08-21T01:49:06;7.43;;;3.83;;
44772;SDS011;30492;52.088;5.122;2022-08-21T01:52:46;11.15;;;4.20;;
44772;SDS011;30492;52.088;5.122;2022-08-21T01:56:26;9.65;;;4.05;;
44772;SDS011;30492;52.088;5.122;2022-08-21T02:00:06;8.40;;;3.97;;
44772;SDS011;30492;52.088;5.122;2022-08-21T02:03:49;8.65;;;3.90;;
44772;SDS011;30492;52.088;5.122;2022-08-21T02:07:34;9.75;;;3.35;;
44772;SDS011;30492;52.088;5.122;2022-08-21T02:11:14;7.45;;;3.78;;
44772;SDS011;30492;52.088;5.122;2022-08-21T02:14:54;8.68;;;3.55;;
44772;SDS011;30492;52.088;5.122;2022-08-21T02:18:34;7.47;;;3.90;;
44772;SDS011;30492;52.088;5.122;2022-08-21T02:22:14;8.68;;;4.18;;
44772;SDS011;30492;52.088;5.122;2022-08-21T02:25:52;12.63;;;4.22;;
44772;SDS011;30492;52.088;5.122;2022-08-21T02:29:30;11.25;;;4.22;;
44772;SDS011;30492;52.088;5.122;2022-08-21T02:33:09;10.55;;;4.85;;
44772;SDS011;30492;52.088;5.122;2022-08-21T02:36:49;10.05;;;4.32;;
44772;SDS011;30492;52.088;5.122;2022-08-21T02:40:28;10.48;;;3.97;;
44772;SDS011;30492;52.088;5.122;2022-08-21T02:44:09;10.60;;;3.53;;
44772;SDS011;30492;52.088;5.122;2022-08-21T02:47:48;11.43;;;4.10;;
44772;SDS011;30492;52.088;5.122;2022-08-21T02:51:28;11.63;;;4.75;;
44772;SDS011;30492;52.088;5.122;2022-08-21T02:55:07;8.93;;;4.07;;
44772;SDS011;30492;52.088;5.122;2022-08-21T02:58:47;10.27;;;4.10;;
44772;SDS011;30492;52.088;5.122;2022-08-21T03:02:28;6.45;;;3.80;;
44772;SDS011;30492;52.088;5.122;2022-08-21T03:06:07;5.80;;;3.58;;
44772;SDS011;30492;52.088;5.122;2022-08-21T03:09:47;11.05;;;3.50;;
44772;SDS011;30492;52.088;5.122;2022-08-21T03:13:26;10.60;;;3.40;;
44772;SDS011;30492;52.088;5.122;2022-08-21T03:17:06;8.45;;;4.63;;
44772;SDS011;30492;52.088;5.122;2022-08-21T03:20:45;14.45;;;4.30;;
44772;SDS011;30492;52.088;5.122;2022-08-21T03:24:25;9.82;;;3.60;;
44772;SDS011;30492;52.088;5.122;2022-08-21T03:28:04;9.00;;;3.83;;
44772;SDS011;30492;52.088;5.122;2022-08-21T03:31:44;7.03;;;3.50;;
44772;SDS011;30492;52.088;5.122;2022-08-21T03:39:02;13.27;;;4.00;;
44772;SDS011;30492;52.088;5.122;2022-08-21T03:42:41;9.07;;;3.40;;
44772;SDS011;30492;52.088;5.122;2022-08-21T03:46:21;11.13;;;4.63;;
44772;SDS011;30492;52.088;5.122;2022-08-21T03:49:41;11.02;;;4.15;;
44772;SDS011;30492;52.088;5.122;2022-08-21T03:53:20;13.73;;;4.40;;
44772;SDS011;30492;52.088;5.122;2022-08-21T03:56:58;13.88;;;4.38;;
44772;SDS011;30492;52.088;5.122;2022-08-21T04:00:37;7.30;;;3.90;;
44772;SDS011;30492;52.088;5.122;2022-08-21T04:04:15;8.50;;;3.80;;
44772;SDS011;30492;52.088;5.122;2022-08-21T04:07:56;9.10;;;4.95;;
44772;SDS011;30492;52.088;5.122;2022-08-21T04:11:36;12.98;;;5.20;;
44772;SDS011;30492;52.088;5.122;2022-08-21T04:15:15;12.75;;;4.72;;
44772;SDS011;30492;52.088;5.122;2022-08-21T04:18:54;16.88;;;5.10;;
44772;SDS011;30492;52.088;5.122;2022-08-21T04:22:33;9.82;;;4.55;;
44772;SDS011;30492;52.088;5.122;2022-08-21T04:26:13;11.13;;;4.80;;
44772;SDS011;30492;52.088;5.122;2022-08-21T04:29:53;10.27;;;4.72;;
44772;SDS011;30492;52.088;5.122;2022-08-21T04:33:33;11.32;;;4.55;;
44772;SDS011;30492;52.088;5.122;2022-08-21T04:37:12;9.93;;;4.43;;
44772;SDS011;30492;52.088;5.122;2022-08-21T04:40:51;13.27;;;4.85;;
44772;SDS011;30492;52.088;5.122;2022-08-21T04:44:12;11.40;;;5.32;;
44772;SDS011;30492;52.088;5.122;2022-08-21T04:47:52;10.85;;;4.80;;
44772;SDS011;30492;52.088;5.122;2022-08-21T04:51:33;8.85;;;4.72;;
44772;SDS011;30492;52.088;5.122;2022-08-21T04:55:15;9.75;;;4.63;;
44772;SDS011;30492;52.088;5.122;2022-08-21T04:58:57;11.95;;;5.00;;
44772;SDS011;30492;52.088;5.122;2022-08-21T05:02:39;16.52;;;5.53;;
44772;SDS011;30492;52.088;5.122;2022-08-21T05:06:18;17.15;;;5.18;;
44772;SDS011;30492;52.088;5.122;2022-08-21T05:09:58;10.13;;;4.32;;
44772;SDS011;30492;52.088;5.122;2022-08-21T05:13:38;12.90;;;4.40;;
44772;SDS011;30492;52.088;5.122;2022-08-21T05:17:17;13.57;;;4.55;;
44772;SDS011;30492;52.088;5.122;2022-08-21T05:20:58;16.42;;;4.70;;
44772;SDS011;30492;52.088;5.122;2022-08-21T05:24:37;12.20;;;4.13;;
44772;SDS011;30492;52.088;5.122;2022-08-21T05:28:16;16.58;;;5.72;;
44772;SDS011;30492;52.088;5.122;2022-08-21T05:31:55;15.32;;;5.28;;
44772;SDS011;30492;52.088;5.122;2022-08-21T05:35:34;14.98;;;5.38;;
44772;SDS011;30492;52.088;5.122;2022-08-21T05:39:16;15.00;;;4.82;;
44772;SDS011;30492;52.088;5.122;2022-08-21T05:42:55;10.63;;;5.65;;
44772;SDS011;30492;52.088;5.122;2022-08-21T05:46:35;19.50;;;6.18;;
44772;SDS011;30492;52.088;5.122;2022-08-21T05:49:43;18.95;;;5.40;;
44772;SDS011;30492;52.088;5.122;2022-08-21T05:53:23;16.45;;;6.57;;
44772;SDS011;30492;52.088;5.122;2022-08-21T05:57:02;18.30;;;6.47;;
44772;SDS011;30492;52.088;5.122;2022-08-21T06:00:42;19.30;;;6.33;;
44772;SDS011;30492;52.088;5.122;2022-08-21T06:04:22;13.05;;;5.25;;
44772;SDS011;30492;52.088;5.122;2022-08-21T06:08:03;18.25;;;6.50;;
44772;SDS011;30492;52.088;5.122;2022-08-21T06:11:42;19.27;;;5.85;;
44772;SDS011;30492;52.088;5.122;2022-08-21T06:15:02;21.15;;;5.95;;
44772;SDS011;30492;52.088;5.122;2022-08-21T06:18:43;19.75;;;5.68;;
44772;SDS011;30492;52.088;5.122;2022-08-21T06:26:04;24.00;;;5.25;;
44772;SDS011;30492;52.088;5.122;2022-08-21T06:29:45;16.85;;;5.22;;
44772;SDS011;30492;52.088;5.122;2022-08-21T06:33:24;17.08;;;5.47;;
44772;SDS011;30492;52.088;5.122;2022-08-21T06:37:04;24.75;;;5.65;;
44772;SDS011;30492;52.088;5.122;2022-08-21T06:40:44;19.77;;;5.78;;
44772;SDS011;30492;52.088;5.122;2022-08-21T06:44:24;18.33;;;6.53;;
44772;SDS011;30492;52.088;5.122;2022-08-21T06:48:08;19.30;;;4.60;;
44772;SDS011;30492;52.088;5.122;2022-08-21T06:51:46;15.10;;;4.60;;
44772;SDS011;30492;52.088;5.122;2022-08-21T06:55:25;14.45;;;5.40;;
44772;SDS011;30492;52.088;5.122;2022-08-21T06:59:03;12.45;;;4.65;;
44772;SDS011;30492;52.088;5.122;2022-08-21T07:02:43;22.13;;;5.32;;
44772;SDS011;30492;52.088;5.122;2022-08-21T07:06:21;13.18;;;5.20;;
44772;SDS011;30492;52.088;5.122;2022-08-21T07:10:00;13.38;;;5.07;;
44772;SDS011;30492;52.088;5.122;2022-08-21T07:13:38;16.23;;;4.07;;
44772;SDS011;30492;52.088;5.122;2022-08-21T07:17:17;13.93;;;5.45;;
44772;SDS011;30492;52.088;5.122;2022-08-21T07:20:58;24.13;;;4.82;;
44772;SDS011;30492;52.088;5.122;2022-08-21T07:24:38;16.95;;;5.30;;
44772;SDS011;30492;52.088;5.122;2022-08-21T07:28:16;14.77;;;4.05;;
44772;SDS011;30492;52.088;5.122;2022-08-21T07:31:55;16.48;;;4.65;;
44772;SDS011;30492;52.088;5.122;2022-08-21T07:35:33;16.42;;;4.32;;
44772;SDS011;30492;52.088;5.122;2022-08-21T07:39:14;13.70;;;4.03;;
44772;SDS011;30492;52.088;5.122;2022-08-21T07:42:52;16.17;;;4.43;;
44772;SDS011;30492;52.088;5.122;2022-08-21T07:46:30;21.48;;;5.00;;
44772;SDS011;30492;52.088;5.122;2022-08-21T07:50:09;14.50;;;4.05;;
44772;SDS011;30492;52.088;5.122;2022-08-21T07:53:50;13.85;;;3.50;;
44772;SDS011;30492;52.088;5.122;2022-08-21T07:57:32;17.42;;;4.40;;
44772;SDS011;30492;52.088;5.122;2022-08-21T08:01:11;17.27;;;4.40;;
44772;SDS011;30492;52.088;5.122;2022-08-21T08:04:50;15.93;;;4.43;;
44772;SDS011;30492;52.088;5.122;2022-08-21T08:08:29;19.15;;;5.97;;
44772;SDS011;30492;52.088;5.122;2022-08-21T08:12:08;27.75;;;4.97;;
44772;SDS011;30492;52.088;5.122;2022-08-21T08:15:49;19.38;;;4.65;;
44772;SDS011;30492;52.088;5.122;2022-08-21T08:19:09;18.80;;;5.30;;
44772;SDS011;30492;52.088;5.122;2022-08-21T08:22:48;18.85;;;4.97;;
44772;SDS011;30492;52.088;5.122;2022-08-21T08:26:27;15.95;;;4.65;;
44772;SDS011;30492;52.088;5.122;2022-08-21T08:30:07;20.00;;;5.43;;
44772;SDS011;30492;52.088;5.122;2022-08-21T08:33:50;11.73;;;4.03;;
44772;SDS011;30492;52.088;5.122;2022-08-21T08:37:29;15.48;;;5.03;;
44772;SDS011;30492;52.088;5.122;2022-08-21T08:41:12;13.57;;;3.85;;
44772;SDS011;30492;52.088;5.122;2022-08-21T08:44:55;19.52;;;4.80;;
44772;SDS011;30492;52.088;5.122;2022-08-21T08:48:40;24.10;;;6.00;;
44772;SDS011;30492;52.088;5.122;2022-08-21T08:52:28;18.30;;;4.97;;
44772;SDS011;30492;52.088;5.122;2022-08-21T08:56:08;16.83;;;4.22;;
44772;SDS011;30492;52.088;5.122;2022-08-21T08:59:35;14.85;;;4.10;;
44772;SDS011;30492;52.088;5.122;2022-08-21T09:03:16;17.27;;;3.30;;
44772;SDS011;30492;52.088;5.122;2022-08-21T09:06:58;21.50;;;4.88;;
44772;SDS011;30492;52.088;5.122;2022-08-21T09:10:50;19.77;;;4.43;;
44772;SDS011;30492;52.088;5.122;2022-08-21T09:14:43;15.32;;;3.35;;
44772;SDS011;30492;52.088;5.122;2022-08-21T09:18:35;16.17;;;3.60;;
44772;SDS011;30492;52.088;5.122;2022-08-21T09:22:23;18.67;;;3.58;;
44772;SDS011;30492;52.088;5.122;2022-08-21T09:26:13;22.50;;;4.03;;
44772;SDS011;30492;52.088;5.122;2022-08-21T09:29:54;22.40;;;4.43;;
44772;SDS011;30492;52.088;5.122;2022-08-21T09:37:15;12.60;;;3.15;;
44772;SDS011;30492;52.088;5.122;2022-08-21T09:40:57;16.25;;;3.05;;
44772;SDS011;30492;52.088;5.122;2022-08-21T09:44:39;18.65;;;3.00;;
44772;SDS011;30492;52.088;5.122;2022-08-21T09:48:21;20.85;;;3.83;;
44772;SDS011;30492;52.088;5.122;2022-08-21T09:52:02;14.48;;;2.88;;
44772;SDS011;30492;52.088;5.122;2022-08-21T09:55:51;18.33;;;3.40;;
44772;SDS011;30492;52.088;5.122;2022-08-21T09:59:50;17.00;;;4.40;;
44772;SDS011;30492;52.088;5.122;2022-08-21T10:03:29;11.80;;;2.58;;
44772;SDS011;30492;52.088;5.122;2022-08-21T10:07:09;13.30;;;2.73;;
44772;SDS011;30492;52.088;5.122;2022-08-21T10:10:32;13.27;;;2.50;;
44772;SDS011;30492;52.088;5.122;2022-08-21T10:14:16;15.48;;;2.47;;
44772;SDS011;30492;52.088;5.122;2022-08-21T10:18:06;11.85;;;2.42;;
44772;SDS011;30492;52.088;5.122;2022-08-21T10:25:18;12.70;;;2.30;;
44772;SDS011;30492;52.088;5.122;2022-08-21T10:29:03;12.68;;;2.63;;
44772;SDS011;30492;52.088;5.122;2022-08-21T10:32:55;8.18;;;2.70;;
44772;SDS011;30492;52.088;5.122;2022-08-21T10:36:44;8.70;;;2.30;;
44772;SDS011;30492;52.088;5.122;2022-08-21T10:40:25;13.98;;;2.35;;
44772;SDS011;30492;52.088;5.122;2022-08-21T10:44:09;10.32;;;2.47;;
44772;SDS011;30492;52.088;5.122;2022-08-21T10:47:59;17.70;;;2.72;;
44772;SDS011;30492;52.088;5.122;2022-08-21T10:51:46;7.90;;;1.67;;
44772;SDS011;30492;52.088;5.122;2022-08-21T10:55:33;7.80;;;2.13;;
44772;SDS011;30492;52.088;5.122;2022-08-21T10:59:22;10.25;;;3.00;;
44772;SDS011;30492;52.088;5.122;2022-08-21T11:02:44;11.23;;;2.13;;
44772;SDS011;30492;52.088;5.122;2022-08-21T11:06:32;8.68;;;2.33;;
44772;SDS011;30492;52.088;5.122;2022-08-21T11:10:15;10.63;;;2.35;;
44772;SDS011;30492;52.088;5.122;2022-08-21T11:14:01;7.72;;;1.67;;
44772;SDS011;30492;52.088;5.122;2022-08-21T11:17:49;7.97;;;2.58;;
44772;SDS011;30492;52.088;5.122;2022-08-21T11:21:37;12.57;;;2.58;;
44772;SDS011;30492;52.088;5.122;2022-08-21T11:25:22;11.02;;;2.25;;
44772;SDS011;30492;52.088;5.122;2022-08-21T11:29:09;11.93;;;2.35;;
44772;SDS011;30492;52.088;5.122;2022-08-21T11:33:03;6.90;;;1.92;;
44772;SDS011;30492;52.088;5.122;2022-08-21T11:36:53;8.80;;;1.85;;
44772;SDS011;30492;52.088;5.122;2022-08-21T11:40:44;9.70;;;2.10;;
44772;SDS011;30492;52.088;5.122;2022-08-21T11:44:34;6.60;;;2.40;;
44772;SDS011;30492;52.088;5.122;2022-08-21T11:48:04;8.55;;;1.88;;
44772;SDS011;30492;52.088;5.122;2022-08-21T11:51:52;10.07;;;2.58;;
44772;SDS011;30492;52.088;5.122;2022-08-21T11:55:36;9.80;;;2.20;;
44772;SDS011;30492;52.088;5.122;2022-08-21T11:59:23;13.73;;;2.75;;
44772;SDS011;30492;52.088;5.122;2022-08-21T12:03:13;9.20;;;2.10;;
44772;SDS011;30492;52.088;5.122;2022-08-21T12:06:55;11.15;;;3.22;;
44772;SDS011;30492;52.088;5.122;2022-08-21T12:10:35;6.85;;;1.92;;
44772;SDS011;30492;52.088;5.122;2022-08-21T12:14:16;7.10;;;1.65;;
44772;SDS011;30492;52.088;5.122;2022-08-21T12:18:04;9.88;;;2.38;;
44772;SDS011;30492;52.088;5.122;2022-08-21T12:21:48;9.38;;;2.28;;
44772;SDS011;30492;52.088;5.122;2022-08-21T12:25:36;8.45;;;2.08;;
44772;SDS011;30492;52.088;5.122;2022-08-21T12:29:21;8.30;;;2.15;;
44772;SDS011;30492;52.088;5.122;2022-08-21T12:33:04;9.40;;;1.80;;
44772;SDS011;30492;52.088;5.122;2022-08-21T12:36:44;6.57;;;1.90;;
44772;SDS011;30492;52.088;5.122;2022-08-21T12:40:30;12.05;;;1.98;;
44772;SDS011;30492;52.088;5.122;2022-08-21T12:44:21;11.98;;;2.35;;
44772;SDS011;30492;52.088;5.122;2022-08-21T12:48:09;12.35;;;2.60;;
44772;SDS011;30492;52.088;5.122;2022-08-21T12:51:55;7.95;;;2.35;;
44772;SDS011;30492;52.088;5.122;2022-08-21T12:55:38;10.20;;;2.33;;
44772;SDS011;30492;52.088;5.122;2022-08-21T12:59:20;8.80;;;1.98;;
44772;SDS011;30492;52.088;5.122;2022-08-21T13:02:39;8.23;;;1.65;;
44772;SDS011;30492;52.088;5.122;2022-08-21T13:06:25;11.57;;;2.22;;
44772;SDS011;30492;52.088;5.122;2022-08-21T13:10:19;8.27;;;1.50;;
44772;SDS011;30492;52.088;5.122;2022-08-21T13:14:02;7.53;;;2.08;;
44772;SDS011;30492;52.088;5.122;2022-08-21T13:17:43;10.00;;;2.35;;
44772;SDS011;30492;52.088;5.122;2022-08-21T13:21:34;6.85;;;2.30;;
44772;SDS011;30492;52.088;5.122;2022-08-21T13:25:20;9.00;;;2.13;;
44772;SDS011;30492;52.088;5.122;2022-08-21T13:29:06;7.43;;;2.05;;
44772;SDS011;30492;52.088;5.122;2022-08-21T13:32:48;10.13;;;2.33;;
44772;SDS011;30492;52.088;5.122;2022-08-21T13:36:29;6.82;;;1.77;;
44772;SDS011;30492;52.088;5.122;2022-08-21T13:40:15;6.05;;;2.05;;
44772;SDS011;30492;52.088;5.122;2022-08-21T13:44:00;9.20;;;2.33;;
44772;SDS011;30492;52.088;5.122;2022-08-21T13:47:40;6.40;;;1.65;;
44772;SDS011;30492;52.088;5.122;2022-08-21T13:51:20;7.00;;;2.03;;
44772;SDS011;30492;52.088;5.122;2022-08-21T13:55:08;9.38;;;2.30;;
44772;SDS011;30492;52.088;5.122;2022-08-21T13:58:52;4.95;;;1.40;;
44772;SDS011;30492;52.088;5.122;2022-08-21T14:02:37;9.95;;;1.88;;
44772;SDS011;30492;52.088;5.122;2022-08-21T14:06:18;7.05;;;2.15;;
44772;SDS011;30492;52.088;5.122;2022-08-21T14:10:00;7.10;;;1.30;;
44772;SDS011;30492;52.088;5.122;2022-08-21T14:13:41;8.48;;;1.60;;
44772;SDS011;30492;52.088;5.122;2022-08-21T14:17:27;6.45;;;1.90;;
44772;SDS011;30492;52.088;5.122;2022-08-21T14:21:08;10.98;;;2.03;;
44772;SDS011;30492;52.088;5.122;2022-08-21T14:24:48;8.93;;;2.05;;
44772;SDS011;30492;52.088;5.122;2022-08-21T14:28:27;3.42;;;1.55;;
44772;SDS011;30492;52.088;5.122;2022-08-21T14:32:09;8.82;;;2.03;;
44772;SDS011;30492;52.088;5.122;2022-08-21T14:35:52;6.75;;;1.95;;
44772;SDS011;30492;52.088;5.122;2022-08-21T14:39:32;5.65;;;1.85;;
44772;SDS011;30492;52.088;5.122;2022-08-21T14:43:10;9.60;;;1.80;;
44772;SDS011;30492;52.088;5.122;2022-08-21T14:46:48;6.60;;;1.50;;
44772;SDS011;30492;52.088;5.122;2022-08-21T14:50:26;6.32;;;1.73;;
44772;SDS011;30492;52.088;5.122;2022-08-21T14:54:07;4.45;;;1.23;;
44772;SDS011;30492;52.088;5.122;2022-08-21T14:57:46;6.68;;;2.03;;
44772;SDS011;30492;52.088;5.122;2022-08-21T15:01:28;6.88;;;1.90;;
44772;SDS011;30492;52.088;5.122;2022-08-21T15:05:07;13.63;;;3.10;;
44772;SDS011;30492;52.088;5.122;2022-08-21T15:08:46;5.38;;;1.40;;
44772;SDS011;30492;52.088;5.122;2022-08-21T15:12:27;6.00;;;1.88;;
44772;SDS011;30492;52.088;5.122;2022-08-21T15:16:07;10.13;;;2.15;;
44772;SDS011;30492;52.088;5.122;2022-08-21T15:19:48;7.25;;;2.58;;
44772;SDS011;30492;52.088;5.122;2022-08-21T15:23:26;5.20;;;1.77;;
44772;SDS011;30492;52.088;5.122;2022-08-21T15:27:06;9.90;;;2.10;;
44772;SDS011;30492;52.088;5.122;2022-08-21T15:30:48;9.25;;;1.80;;
44772;SDS011;30492;52.088;5.122;2022-08-21T15:34:30;7.47;;;2.00;;
44772;SDS011;30492;52.088;5.122;2022-08-21T15:38:09;9.45;;;2.22;;
44772;SDS011;30492;52.088;5.122;2022-08-21T15:41:48;9.18;;;2.15;;
44772;SDS011;30492;52.088;5.122;2022-08-21T15:45:27;9.97;;;1.70;;
44772;SDS011;30492;52.088;5.122;2022-08-21T15:49:06;7.40;;;2.17;;
44772;SDS011;30492;52.088;5.122;2022-08-21T15:52:46;8.93;;;2.00;;
44772;SDS011;30492;52.088;5.122;2022-08-21T15:56:26;13.40;;;2.63;;
44772;SDS011;30492;52.088;5.122;2022-08-21T16:00:10;11.43;;;2.78;;
44772;SDS011;30492;52.088;5.122;2022-08-21T16:03:51;6.05;;;1.58;;
44772;SDS011;30492;52.088;5.122;2022-08-21T16:12:06;7.93;;;1.77;;
44772;SDS011;30492;52.088;5.122;2022-08-21T16:15:51;14.25;;;2.53;;
44772;SDS011;30492;52.088;5.122;2022-08-21T16:19:31;12.65;;;3.35;;
44772;SDS011;30492;52.088;5.122;2022-08-21T16:23:10;11.07;;;2.42;;
44772;SDS011;30492;52.088;5.122;2022-08-21T16:26:49;9.32;;;3.05;;
44772;SDS011;30492;52.088;5.122;2022-08-21T16:30:09;10.95;;;2.60;;
44772;SDS011;30492;52.088;5.122;2022-08-21T16:33:51;7.25;;;2.10;;
44772;SDS011;30492;52.088;5.122;2022-08-21T16:37:31;9.55;;;2.20;;
44772;SDS011;30492;52.088;5.122;2022-08-21T16:41:11;9.03;;;1.80;;
44772;SDS011;30492;52.088;5.122;2022-08-21T16:44:54;10.85;;;2.67;;
44772;SDS011;30492;52.088;5.122;2022-08-21T16:48:35;8.93;;;2.28;;
44772;SDS011;30492;52.088;5.122;2022-08-21T16:52:14;9.93;;;2.35;;
44772;SDS011;30492;52.088;5.122;2022-08-21T16:55:53;6.38;;;1.67;;
44772;SDS011;30492;52.088;5.122;2022-08-21T16:59:31;5.88;;;1.83;;
44772;SDS011;30492;52.088;5.122;2022-08-21T17:03:11;9.27;;;2.28;;
44772;SDS011;30492;52.088;5.122;2022-08-21T17:06:54;12.60;;;3.50;;
44772;SDS011;30492;52.088;5.122;2022-08-21T17:10:34;5.57;;;1.75;;
44772;SDS011;30492;52.088;5.122;2022-08-21T17:14:14;9.25;;;2.42;;
44772;SDS011;30492;52.088;5.122;2022-08-21T17:17:55;10.65;;;2.72;;
44772;SDS011;30492;52.088;5.122;2022-08-21T17:25:16;10.57;;;2.22;;
44772;SDS011;30492;52.088;5.122;2022-08-21T17:28:55;9.38;;;2.72;;
44772;SDS011;30492;52.088;5.122;2022-08-21T17:32:40;7.90;;;2.53;;
44772;SDS011;30492;52.088;5.122;2022-08-21T17:36:20;8.25;;;2.35;;
44772;SDS011;30492;52.088;5.122;2022-08-21T17:40:02;7.30;;;2.33;;
44772;SDS011;30492;52.088;5.122;2022-08-21T17:43:49;6.32;;;2.85;;
44772;SDS011;30492;52.088;5.122;2022-08-21T17:47:29;9.40;;;2.97;;
44772;SDS011;30492;52.088;5.122;2022-08-21T17:51:08;7.75;;;1.83;;
44772;SDS011;30492;52.088;5.122;2022-08-21T17:54:47;8.60;;;2.95;;
44772;SDS011;30492;52.088;5.122;2022-08-21T17:58:26;6.78;;;2.00;;
44772;SDS011;30492;52.088;5.122;2022-08-21T18:02:07;9.85;;;3.08;;
44772;SDS011;30492;52.088;5.122;2022-08-21T18:05:48;10.68;;;2.63;;
44772;SDS011;30492;52.088;5.122;2022-08-21T18:09:28;13.73;;;3.45;;
44772;SDS011;30492;52.088;5.122;2022-08-21T18:13:09;15.80;;;3.40;;
44772;SDS011;30492;52.088;5.122;2022-08-21T18:16:51;8.23;;;2.45;;
44772;SDS011;30492;52.088;5.122;2022-08-21T18:20:32;9.45;;;3.10;;
44772;SDS011;30492;52.088;5.122;2022-08-21T18:24:11;12.15;;;2.53;;
44772;SDS011;30492;52.088;5.122;2022-08-21T18:27:51;8.05;;;2.88;;
44772;SDS011;30492;52.088;5.122;2022-08-21T18:31:30;6.07;;;2.88;;
44772;SDS011;30492;52.088;5.122;2022-08-21T18:38:52;7.80;;;1.88;;
44772;SDS011;30492;52.088;5.122;2022-08-21T18:42:31;6.65;;;2.08;;
44772;SDS011;30492;52.088;5.122;2022-08-21T18:46:14;7.22;;;2.45;;
44772;SDS011;30492;52.088;5.122;2022-08-21T18:49:53;11.63;;;3.08;;
44772;SDS011;30492;52.088;5.122;2022-08-21T18:53:32;5.80;;;2.07;;
44772;SDS011;30492;52.088;5.122;2022-08-21T18:57:13;6.60;;;2.13;;
44772;SDS011;30492;52.088;5.122;2022-08-21T19:00:52;4.65;;;2.03;;
44772;SDS011;30492;52.088;5.122;2022-08-21T19:04:31;12.15;;;2.97;;
44772;SDS011;30492;52.088;5.122;2022-08-21T19:08:11;8.40;;;2.80;;
44772;SDS011;30492;52.088;5.122;2022-08-21T19:11:52;12.80;;;2.75;;
44772;SDS011;30492;52.088;5.122;2022-08-21T19:15:36;12.77;;;2.95;;
44772;SDS011;30492;52.088;5.122;2022-08-21T19:19:18;9.25;;;2.65;;
44772;SDS011;30492;52.088;5.122;2022-08-21T19:22:57;6.95;;;2.30;;
44772;SDS011;30492;52.088;5.122;2022-08-21T19:26:36;10.38;;;2.67;;
44772;SDS011;30492;52.088;5.122;2022-08-21T19:30:15;9.30;;;2.83;;
44772;SDS011;30492;52.088;5.122;2022-08-21T19:33:57;10.18;;;2.85;;
44772;SDS011;30492;52.088;5.122;2022-08-21T19:37:38;8.85;;;2.45;;
44772;SDS011;30492;52.088;5.122;2022-08-21T19:41:17;13.30;;;3.20;;
44772;SDS011;30492;52.088;5.122;2022-08-21T19:45:03;8.40;;;2.20;;
44772;SDS011;30492;52.088;5.122;2022-08-21T19:48:43;8.88;;;2.25;;
44772;SDS011;30492;52.088;5.122;2022-08-21T19:52:25;5.22;;;2.55;;
44772;SDS011;30492;52.088;5.122;2022-08-21T19:56:05;12.63;;;2.97;;
44772;SDS011;30492;52.088;5.122;2022-08-21T19:59:46;6.93;;;2.65;;
44772;SDS011;30492;52.088;5.122;2022-08-21T20:03:24;8.85;;;2.58;;
44772;SDS011;30492;52.088;5.122;2022-08-21T20:07:03;7.85;;;2.42;;
44772;SDS011;30492;52.088;5.122;2022-08-21T20:10:44;7.38;;;2.60;;
44772;SDS011;30492;52.088;5.122;2022-08-21T20:14:48;10.73;;;2.75;;
44772;SDS011;30492;52.088;5.122;2022-08-21T20:18:21;5.93;;;2.45;;
44772;SDS011;30492;52.088;5.122;2022-08-21T20:22:00;8.23;;;2.85;;
44772;SDS011;30492;52.088;5.122;2022-08-21T20:25:40;8.18;;;2.45;;
44772;SDS011;30492;52.088;5.122;2022-08-21T20:29:22;9.17;;;2.57;;
44772;SDS011;30492;52.088;5.122;2022-08-21T20:33:01;11.48;;;2.35;;
44772;SDS011;30492;52.088;5.122;2022-08-21T20:36:40;12.70;;;2.83;;
44772;SDS011;30492;52.088;5.122;2022-08-21T20:40:21;9.35;;;2.60;;
44772;SDS011;30492;52.088;5.122;2022-08-21T20:44:01;9.15;;;2.45;;
44772;SDS011;30492;52.088;5.122;2022-08-21T20:48:09;8.80;;;2.28;;
44772;SDS011;30492;52.088;5.122;2022-08-21T20:51:32;9.80;;;3.13;;
44772;SDS011;30492;52.088;5.122;2022-08-21T20:55:15;11.10;;;2.47;;
44772;SDS011;30492;52.088;5.122;2022-08-21T20:58:59;7.22;;;2.20;;
44772;SDS011;30492;52.088;5.122;2022-08-21T21:02:54;7.47;;;2.40;;
44772;SDS011;30492;52.088;5.122;2022-08-21T21:06:40;10.35;;;2.70;;
44772;SDS011;30492;52.088;5.122;2022-08-21T21:14:18;9.63;;;2.63;;
44772;SDS011;30492;52.088;5.122;2022-08-21T21:18:01;15.90;;;3.03;;
44772;SDS011;30492;52.088;5.122;2022-08-21T21:21:48;7.25;;;2.20;;
44772;SDS011;30492;52.088;5.122;2022-08-21T21:25:31;8.38;;;2.28;;
44772;SDS011;30492;52.088;5.122;2022-08-21T21:29:15;7.28;;;2.38;;
44772;SDS011;30492;52.088;5.122;2022-08-21T21:32:59;9.57;;;2.58;;
44772;SDS011;30492;52.088;5.122;2022-08-21T21:36:41;18.27;;;3.08;;
44772;SDS011;30492;52.088;5.122;2022-08-21T21:40:27;7.75;;;2.17;;
44772;SDS011;30492;52.088;5.122;2022-08-21T21:44:19;12.98;;;3.33;;
44772;SDS011;30492;52.088;5.122;2022-08-21T21:48:10;9.07;;;2.88;;
44772;SDS011;30492;52.088;5.122;2022-08-21T21:51:58;7.43;;;2.50;;
44772;SDS011;30492;52.088;5.122;2022-08-21T21:55:50;13.75;;;4.35;;
44772;SDS011;30492;52.088;5.122;2022-08-21T21:59:43;8.93;;;2.58;;
44772;SDS011;30492;52.088;5.122;2022-08-21T22:03:37;9.20;;;2.80;;
44772;SDS011;30492;52.088;5.122;2022-08-21T22:07:27;7.60;;;2.50;;
44772;SDS011;30492;52.088;5.122;2022-08-21T22:10:54;7.15;;;2.50;;
44772;SDS011;30492;52.088;5.122;2022-08-21T22:14:39;8.25;;;2.47;;
44772;SDS011;30492;52.088;5.122;2022-08-21T22:18:20;8.55;;;2.50;;
44772;SDS011;30492;52.088;5.122;2022-08-21T22:22:04;7.75;;;2.33;;
44772;SDS011;30492;52.088;5.122;2022-08-21T22:25:46;7.78;;;2.80;;
44772;SDS011;30492;52.088;5.122;2022-08-21T22:29:41;8.25;;;2.90;;
44772;SDS011;30492;52.088;5.122;2022-08-21T22:33:24;7.22;;;2.42;;